Terminal Aerodrome Forecast
Issued by NWS

Home | Current Version | Previous Version | Text Only | Print | Product List | Glossary On
Versions: 1 2 3 4 5 6 7 8 9 10 11 12
000
FTUS43 KMPX 301120
TAFRWF
TAF
KRWF 301120Z 3012/0112 VRB03KT P6SM SKC
     FM301700 14008KT P6SM FEW250
     FM010200 15007KT P6SM BKN200
     FM011000 18007KT P6SM -RA SCT050 OVC070=

USA.gov is the U.S. government's official web portal to all federal, state and local government web resources and services.